FAPN

Details ICAO FAPN (NTY)
Name Pilanesberg
Region South Africa
Timezone Africa/Johannesburg (UTC+2.0)
Plans Departing 4
Arriving 5
Stats Elevation 3,412 ft / 1,040 m (AMSL)
Location -25.333824° 27.173584°
Runways 1
Magnetic Variation 17.216° W
Sunrise 2017-12-18 03:17:51 UTC / 2017-12-18 05:17:51 Local
Sunset 2017-12-18 17:00:37 UTC / 2017-12-18 19:00:37 Local
Advertisement - Login to hide

Runways

ID Width Length Bearing (true) Bearing (mag) Surface Threshold Offset Overrun Length
05 98 ft / 30 m 9,031 ft / 2,753 m 37.09° 54.31° Asphalt 0 ft / 0 m 0 ft / 0 m
23 98 ft / 30 m 9,031 ft / 2,753 m 217.09° 234.31° Asphalt 0 ft / 0 m 0 ft / 0 m

Map

Weather


0- 5 10 15 20 25 30 35+ Temperature / ° C

Clouds and Precipitation
Forecast for 2017-12-18 12:00 UTC. Updated 2 hours ago

Ground ~20,000 ft ~40,000 ft Winds

METAR

FAPN 181100Z AUTO 02007KT //// // ////// 34/04 Q1014

TAF

Not found

Frequencies

Tower 118.40 MHz TWR
Warning: Do not use this data for real-world aviation or navigation. No guarantee of current accuracy is given.